createdAt,value
2019-05-15T00:00:55.799Z,18.49
2019-05-15T00:05:59.097Z,18.48
2019-05-15T00:11:02.472Z,18.49
2019-05-15T00:16:08.262Z,18.46
2019-05-15T00:21:10.888Z,18.47
2019-05-15T00:26:14.257Z,18.45
2019-05-15T00:31:18.652Z,18.45
2019-05-15T00:36:22.128Z,18.43
2019-05-15T00:41:25.439Z,18.42
2019-05-15T00:46:29.114Z,18.42
2019-05-15T00:51:32.506Z,18.40
2019-05-15T00:56:35.799Z,18.38
2019-05-15T01:01:39.098Z,18.37
2019-05-15T01:06:42.409Z,18.38
2019-05-15T01:11:45.699Z,18.36
2019-05-15T01:16:49.167Z,18.34
2019-05-15T01:21:52.511Z,18.35
2019-05-15T01:26:55.813Z,18.34
2019-05-15T01:31:59.367Z,18.34
2019-05-15T01:37:02.737Z,18.35
2019-05-15T01:42:08.207Z,18.32
2019-05-15T01:47:11.106Z,18.32
2019-05-15T01:52:14.467Z,18.35
2019-05-15T01:57:18.226Z,18.32
2019-05-15T02:02:21.588Z,18.33
2019-05-15T02:07:24.914Z,18.32
2019-05-15T02:12:28.668Z,18.31
2019-05-15T02:17:32.073Z,18.32
2019-05-15T02:22:35.401Z,18.30
2019-05-15T02:27:39.440Z,18.30
2019-05-15T02:32:42.850Z,18.28
2019-05-15T02:37:48.825Z,18.26
2019-05-15T02:42:51.270Z,18.25
2019-05-15T02:47:54.588Z,18.24
2019-05-15T02:53:00.510Z,18.25
2019-05-15T02:58:02.982Z,18.24
2019-05-15T03:03:09.242Z,18.22
2019-05-15T03:08:11.321Z,18.23
2019-05-15T03:13:14.619Z,18.22
2019-05-15T03:18:19.427Z,18.18
2019-05-15T03:23:22.926Z,18.18
2019-05-15T03:28:29.168Z,18.17
2019-05-15T03:33:36.177Z,18.18
2019-05-15T03:38:39.079Z,18.17
2019-05-15T03:43:41.299Z,18.16
2019-05-15T03:48:44.628Z,18.16
2019-05-15T03:53:49.719Z,18.19
2019-05-15T03:58:52.956Z,18.22
2019-05-15T04:03:59.622Z,18.21
2019-05-15T04:09:01.797Z,18.31
2019-05-15T04:14:05.101Z,18.14
2019-05-15T04:19:09.672Z,17.97
2019-05-15T04:24:13.311Z,18.04
2019-05-15T04:29:19.438Z,18.00
2019-05-15T04:34:21.696Z,18.01
2019-05-15T04:39:25.029Z,18.06
2019-05-15T04:44:29.064Z,18.09
2019-05-15T04:49:32.373Z,17.99
2019-05-15T04:54:35.715Z,17.73
2019-05-15T04:59:39.321Z,17.95
2019-05-15T05:04:42.638Z,18.04
2019-05-15T05:09:48.767Z,17.94
2019-05-15T05:14:51.006Z,17.86
2019-05-15T05:19:54.323Z,17.93
2019-05-15T05:24:58.489Z,17.94
2019-05-15T05:30:01.859Z,17.92
2019-05-15T05:35:08.401Z,17.89
2019-05-15T05:40:11.295Z,17.90
2019-05-15T05:45:14.597Z,17.88
2019-05-15T05:50:43.922Z,17.88
2019-05-15T05:55:45.571Z,17.88
2019-05-15T06:00:49.313Z,17.87
2019-05-15T06:05:52.699Z,17.89
2019-05-15T06:10:58.318Z,17.91
2019-05-15T06:16:01.060Z,17.90
2019-05-15T06:21:04.386Z,17.90
2019-05-15T06:26:09.602Z,17.90
2019-05-15T06:31:12.779Z,17.89
2019-05-15T06:36:17.995Z,17.91
2019-05-15T06:41:21.181Z,17.89
2019-05-15T06:46:24.538Z,17.92
2019-05-15T06:51:28.796Z,17.90
2019-05-15T06:56:32.228Z,17.90
2019-05-15T07:01:35.527Z,17.91
2019-05-15T07:06:38.829Z,17.91
2019-05-15T07:11:42.145Z,17.90
2019-05-15T07:16:45.464Z,17.90
2019-05-15T07:21:48.867Z,17.90
2019-05-15T07:26:52.198Z,17.89
2019-05-15T07:31:55.487Z,17.90
2019-05-15T07:36:59.304Z,17.91
2019-05-15T07:42:02.649Z,17.88
2019-05-15T07:47:05.949Z,17.89
2019-05-15T07:52:09.273Z,17.88
2019-05-15T07:57:12.594Z,17.86
2019-05-15T08:02:15.916Z,17.86
2019-05-15T08:07:19.227Z,17.85
2019-05-15T08:12:22.515Z,17.81
2019-05-15T08:17:28.735Z,17.82
2019-05-15T08:22:30.851Z,17.83
2019-05-15T08:27:34.242Z,17.80
2019-05-15T08:32:38.875Z,17.80
2019-05-15T08:37:42.394Z,17.81
2019-05-15T08:42:45.706Z,17.79
2019-05-15T08:47:49.423Z,17.81
2019-05-15T08:52:52.794Z,17.82
2019-05-15T08:58:05.816Z,17.80
2019-05-15T09:03:01.184Z,17.75
2019-05-15T09:08:04.513Z,17.77
2019-05-15T09:13:09.579Z,17.76
2019-05-15T09:18:16.182Z,17.76
2019-05-15T09:23:19.721Z,17.76
2019-05-15T09:28:23.367Z,17.73
2019-05-15T09:33:28.559Z,17.74
2019-05-15T09:38:31.699Z,17.71
2019-05-15T09:43:35.014Z,17.71
2019-05-15T09:48:39.125Z,17.71
2019-05-15T09:53:42.515Z,17.70
2019-05-15T09:58:45.813Z,17.72
2019-05-15T10:03:49.311Z,17.72
2019-05-15T10:08:52.646Z,17.71
2019-05-15T10:13:58.372Z,17.69
2019-05-15T10:19:01.066Z,17.72
2019-05-15T10:24:04.376Z,17.70
2019-05-15T10:29:09.156Z,17.70
2019-05-15T10:34:12.617Z,17.68
2019-05-15T10:39:18.060Z,17.69
2019-05-15T10:44:21.026Z,17.68
2019-05-15T10:49:24.386Z,17.68
2019-05-15T10:54:29.183Z,17.71
2019-05-15T10:59:32.623Z,17.69
2019-05-15T11:04:35.955Z,17.68
2019-05-15T11:09:40.628Z,17.69
2019-05-15T11:14:44.102Z,17.67
2019-05-15T11:19:49.778Z,17.67
2019-05-15T11:24:53.199Z,17.67
2019-05-15T11:29:58.538Z,17.66
2019-05-15T11:35:04.340Z,17.62
2019-05-15T11:40:10.043Z,17.63
2019-05-15T11:45:13.422Z,17.64
2019-05-15T11:50:19.987Z,17.62
2019-05-15T11:55:21.823Z,17.65
2019-05-15T12:00:27.240Z,17.64
2019-05-15T12:05:30.241Z,17.61
2019-05-15T12:10:33.565Z,17.60
2019-05-15T12:15:38.907Z,17.58
2019-05-15T12:20:41.958Z,17.58
2019-05-15T12:25:45.259Z,17.57
2019-05-15T12:35:53.672Z,17.57
2019-05-15T12:37:59.193Z,17.55
2019-05-15T13:01:18.448Z,17.59
2019-05-15T13:06:22.209Z,17.56
2019-05-15T13:11:25.528Z,17.57
2019-05-15T13:16:28.837Z,17.57
2019-05-15T13:21:32.180Z,17.56
2019-05-15T13:26:35.508Z,17.53
2019-05-15T13:31:38.839Z,17.52
2019-05-15T13:36:42.184Z,17.45
2019-05-15T13:41:48.181Z,17.55
2019-05-15T13:46:50.570Z,17.61
2019-05-15T13:51:53.911Z,17.61
2019-05-15T13:56:58.220Z,17.63
2019-05-15T14:02:01.668Z,17.63
2019-05-15T14:07:05.022Z,17.66
2019-05-15T14:12:12.124Z,17.66
2019-05-15T14:17:13.427Z,17.66
2019-05-15T14:22:16.750Z,17.66
2019-05-15T14:27:20.074Z,17.64
2019-05-15T14:32:35.501Z,17.65
2019-05-15T14:37:28.721Z,17.62
2019-05-15T14:42:32.678Z,17.63
2019-05-15T14:47:38.040Z,17.64
2019-05-15T14:52:41.017Z,17.60
2019-05-15T14:57:44.620Z,17.66
2019-05-15T15:02:49.431Z,17.71
2019-05-15T15:07:52.964Z,17.68
2019-05-15T15:12:58.403Z,17.70
2019-05-15T15:18:01.360Z,17.70
2019-05-15T15:23:04.707Z,17.74
2019-05-15T15:28:08.626Z,17.73
2019-05-15T15:33:12.041Z,17.72
2019-05-15T15:38:15.382Z,17.71
2019-05-15T15:43:18.720Z,17.71
2019-05-15T15:48:22.046Z,17.75
2019-05-15T15:53:25.392Z,17.72
2019-05-15T15:58:29.184Z,17.71
2019-05-15T16:03:32.516Z,17.71
2019-05-15T16:08:51.191Z,17.71
2019-05-15T16:13:40.907Z,17.68
2019-05-15T16:18:44.246Z,17.73
2019-05-15T16:23:48.053Z,17.72
2019-05-15T16:28:51.471Z,17.66
2019-05-15T16:33:54.780Z,17.64
2019-05-15T16:39:07.553Z,17.71
2019-05-15T16:44:03.268Z,17.70
2019-05-15T16:49:06.684Z,17.73
2019-05-15T16:54:10.003Z,17.74
2019-05-15T16:59:13.421Z,17.72
2019-05-15T17:04:18.191Z,17.77
2019-05-15T17:09:22.030Z,17.86
2019-05-15T17:14:25.424Z,17.80
2019-05-15T17:19:29.310Z,17.96
2019-05-15T17:24:32.826Z,18.02
2019-05-15T17:29:38.486Z,18.04
2019-05-15T17:34:41.525Z,18.18
2019-05-15T17:39:45.160Z,18.12
2019-05-15T17:44:48.893Z,18.11
2019-05-15T17:49:52.182Z,18.18
2019-05-15T17:54:55.534Z,18.22
2019-05-15T17:59:59.146Z,18.24
2019-05-15T18:05:02.565Z,18.22
2019-05-15T18:10:08.191Z,18.09
2019-05-15T18:15:11.055Z,18.01
2019-05-15T18:20:29.211Z,18.06
2019-05-15T18:25:31.845Z,18.05
2019-05-15T18:30:35.205Z,18.01
2019-05-15T18:35:38.786Z,18.04
2019-05-15T18:40:42.160Z,18.05
2019-05-15T18:45:47.626Z,18.05
2019-05-15T18:50:50.647Z,18.04
2019-05-15T18:55:53.939Z,18.03
2019-05-15T19:00:58.346Z,18.03
2019-05-15T19:06:01.849Z,18.03
2019-05-15T19:11:05.178Z,18.01
2019-05-15T19:16:08.927Z,18.01
2019-05-15T19:21:12.267Z,18.00
2019-05-15T19:26:17.631Z,18.01
2019-05-15T19:31:26.198Z,18.01
2019-05-15T19:36:27.619Z,17.98
2019-05-15T19:41:30.829Z,17.97
2019-05-15T19:46:34.104Z,17.98
2019-05-15T19:51:38.160Z,17.84
2019-05-15T19:56:41.606Z,17.82
2019-05-15T20:01:44.897Z,17.78
2019-05-15T20:06:48.501Z,17.80
2019-05-15T20:11:51.881Z,17.88
2019-05-15T20:16:55.211Z,17.95
2019-05-15T20:21:58.599Z,17.94
2019-05-15T20:27:01.905Z,17.94
2019-05-15T20:32:05.198Z,17.92
2019-05-15T20:37:08.515Z,17.92
2019-05-15T20:42:11.848Z,17.90
2019-05-15T20:47:15.190Z,17.91
2019-05-15T20:52:21.634Z,17.91
2019-05-15T20:57:23.566Z,17.92
2019-05-15T21:02:28.988Z,17.93
2019-05-15T21:07:38.520Z,17.93
2019-05-15T21:12:40.516Z,17.94
2019-05-15T21:17:43.591Z,17.93
2019-05-15T21:22:49.239Z,17.94
2019-05-15T21:27:52.752Z,17.95
2019-05-15T21:32:58.238Z,17.94
2019-05-15T21:38:01.094Z,17.95
2019-05-15T21:43:04.624Z,17.93
2019-05-15T21:48:09.055Z,17.95
2019-05-15T21:53:12.431Z,17.94
2019-05-15T21:58:17.968Z,17.95
2019-05-15T22:03:20.834Z,17.96
2019-05-15T22:08:24.151Z,17.96
2019-05-15T22:13:31.138Z,17.95
2019-05-15T22:18:32.488Z,17.96
2019-05-15T22:23:38.302Z,17.97
2019-05-15T22:28:41.103Z,17.97
2019-05-15T22:33:44.404Z,17.98
2019-05-15T22:38:49.979Z,17.99
2019-05-15T22:43:52.802Z,17.98
2019-05-15T22:48:56.120Z,17.97
2019-05-15T22:53:59.445Z,17.99
2019-05-15T22:59:02.743Z,17.97
2019-05-15T23:04:06.091Z,17.98
2019-05-15T23:09:09.394Z,17.98
2019-05-15T23:14:12.689Z,17.98
2019-05-15T23:19:16.108Z,17.96
2019-05-15T23:24:19.433Z,17.97
2019-05-15T23:29:25.337Z,17.98
2019-05-15T23:34:28.063Z,17.98
2019-05-15T23:39:31.464Z,17.98
2019-05-15T23:44:34.806Z,17.96
2019-05-15T23:49:38.330Z,17.98
2019-05-15T23:54:41.632Z,17.97
2019-05-15T23:59:44.967Z,17.97
